sensor_id;sensor_type;location;lat;lon;timestamp;temperature;humidity
27540;DHT22;15906;52.046;4.724;2023-02-15T00:01:25;3.80;99.90
27540;DHT22;15906;52.046;4.724;2023-02-15T00:03:50;3.80;99.90
27540;DHT22;15906;52.046;4.724;2023-02-15T00:06:17;3.80;99.90
27540;DHT22;15906;52.046;4.724;2023-02-15T00:08:42;3.90;99.90
27540;DHT22;15906;52.046;4.724;2023-02-15T00:11:10;3.70;99.90
27540;DHT22;15906;52.046;4.724;2023-02-15T00:13:36;3.70;99.90
27540;DHT22;15906;52.046;4.724;2023-02-15T00:16:05;3.70;99.90
27540;DHT22;15906;52.046;4.724;2023-02-15T00:18:32;3.70;99.90
27540;DHT22;15906;52.046;4.724;2023-02-15T00:20:57;3.60;99.90
27540;DHT22;15906;52.046;4.724;2023-02-15T00:23:23;3.60;99.90
27540;DHT22;15906;52.046;4.724;2023-02-15T00:25:49;3.60;99.90
27540;DHT22;15906;52.046;4.724;2023-02-15T00:28:15;3.50;99.90
27540;DHT22;15906;52.046;4.724;2023-02-15T00:30:41;3.50;99.90
27540;DHT22;15906;52.046;4.724;2023-02-15T00:33:09;3.50;99.90
27540;DHT22;15906;52.046;4.724;2023-02-15T00:35:34;3.50;99.90
27540;DHT22;15906;52.046;4.724;2023-02-15T00:38:00;3.40;99.90
27540;DHT22;15906;52.046;4.724;2023-02-15T00:40:25;3.30;99.90
27540;DHT22;15906;52.046;4.724;2023-02-15T00:42:51;3.30;99.90
27540;DHT22;15906;52.046;4.724;2023-02-15T00:45:16;3.30;99.90
27540;DHT22;15906;52.046;4.724;2023-02-15T00:47:42;3.20;99.90
27540;DHT22;15906;52.046;4.724;2023-02-15T00:50:07;3.20;99.90
27540;DHT22;15906;52.046;4.724;2023-02-15T00:52:33;3.20;99.90
27540;DHT22;15906;52.046;4.724;2023-02-15T00:54:58;3.10;99.90
27540;DHT22;15906;52.046;4.724;2023-02-15T00:57:24;3.10;99.90
27540;DHT22;15906;52.046;4.724;2023-02-15T00:59:50;3.10;99.90
27540;DHT22;15906;52.046;4.724;2023-02-15T01:02:15;3.10;99.90
27540;DHT22;15906;52.046;4.724;2023-02-15T01:04:41;3.10;99.90
27540;DHT22;15906;52.046;4.724;2023-02-15T01:07:07;3.00;99.90
27540;DHT22;15906;52.046;4.724;2023-02-15T01:09:33;3.00;99.90
27540;DHT22;15906;52.046;4.724;2023-02-15T01:11:58;3.00;99.90
27540;DHT22;15906;52.046;4.724;2023-02-15T01:14:24;3.00;99.90
27540;DHT22;15906;52.046;4.724;2023-02-15T01:16:49;3.10;99.90
27540;DHT22;15906;52.046;4.724;2023-02-15T01:19:15;3.10;99.90
27540;DHT22;15906;52.046;4.724;2023-02-15T01:21:40;3.00;99.90
27540;DHT22;15906;52.046;4.724;2023-02-15T01:24:12;3.00;99.90
27540;DHT22;15906;52.046;4.724;2023-02-15T01:26:38;2.90;99.90
27540;DHT22;15906;52.046;4.724;2023-02-15T01:29:03;2.90;99.90
27540;DHT22;15906;52.046;4.724;2023-02-15T01:31:29;2.90;99.90
27540;DHT22;15906;52.046;4.724;2023-02-15T01:33:54;2.90;99.90
27540;DHT22;15906;52.046;4.724;2023-02-15T01:36:20;2.90;99.90
27540;DHT22;15906;52.046;4.724;2023-02-15T01:38:45;2.80;99.90
27540;DHT22;15906;52.046;4.724;2023-02-15T01:41:11;2.80;99.90
27540;DHT22;15906;52.046;4.724;2023-02-15T01:43:51;2.90;99.90
27540;DHT22;15906;52.046;4.724;2023-02-15T01:46:19;2.90;99.90
27540;DHT22;15906;52.046;4.724;2023-02-15T01:48:47;2.90;99.90
27540;DHT22;15906;52.046;4.724;2023-02-15T01:51:17;2.80;99.90
27540;DHT22;15906;52.046;4.724;2023-02-15T01:53:52;2.90;99.90
27540;DHT22;15906;52.046;4.724;2023-02-15T01:56:24;2.80;99.90
27540;DHT22;15906;52.046;4.724;2023-02-15T01:58:53;2.80;99.90
27540;DHT22;15906;52.046;4.724;2023-02-15T02:01:20;2.80;99.90
27540;DHT22;15906;52.046;4.724;2023-02-15T02:06:19;2.90;99.90
27540;DHT22;15906;52.046;4.724;2023-02-15T02:08:46;2.90;99.90
27540;DHT22;15906;52.046;4.724;2023-02-15T02:11:13;2.80;99.90
27540;DHT22;15906;52.046;4.724;2023-02-15T02:13:40;2.90;99.90
27540;DHT22;15906;52.046;4.724;2023-02-15T02:19:00;2.90;99.90
27540;DHT22;15906;52.046;4.724;2023-02-15T02:21:56;3.00;99.90
27540;DHT22;15906;52.046;4.724;2023-02-15T02:27:37;3.10;99.90
27540;DHT22;15906;52.046;4.724;2023-02-15T02:43:40;3.20;99.90
27540;DHT22;15906;52.046;4.724;2023-02-15T02:46:17;3.20;99.90
27540;DHT22;15906;52.046;4.724;2023-02-15T02:48:46;3.20;99.90
27540;DHT22;15906;52.046;4.724;2023-02-15T02:51:13;3.20;99.90
27540;DHT22;15906;52.046;4.724;2023-02-15T02:53:45;3.30;99.90
27540;DHT22;15906;52.046;4.724;2023-02-15T02:56:26;3.30;99.90
27540;DHT22;15906;52.046;4.724;2023-02-15T02:59:09;3.30;99.90
27540;DHT22;15906;52.046;4.724;2023-02-15T03:02:05;3.40;99.90
27540;DHT22;15906;52.046;4.724;2023-02-15T03:04:36;3.30;99.90
27540;DHT22;15906;52.046;4.724;2023-02-15T03:07:11;3.30;99.90
27540;DHT22;15906;52.046;4.724;2023-02-15T03:09:38;3.30;99.90
27540;DHT22;15906;52.046;4.724;2023-02-15T03:14:38;3.20;99.90
27540;DHT22;15906;52.046;4.724;2023-02-15T03:17:07;3.10;99.90
27540;DHT22;15906;52.046;4.724;2023-02-15T03:19:35;3.10;99.90
27540;DHT22;15906;52.046;4.724;2023-02-15T03:22:29;3.10;99.90
27540;DHT22;15906;52.046;4.724;2023-02-15T03:25:16;3.10;99.90
27540;DHT22;15906;52.046;4.724;2023-02-15T03:27:47;3.00;99.90
27540;DHT22;15906;52.046;4.724;2023-02-15T03:30:15;3.00;99.90
27540;DHT22;15906;52.046;4.724;2023-02-15T03:32:43;2.90;99.90
27540;DHT22;15906;52.046;4.724;2023-02-15T03:35:09;2.90;99.90
27540;DHT22;15906;52.046;4.724;2023-02-15T03:37:59;2.90;99.90
27540;DHT22;15906;52.046;4.724;2023-02-15T03:40:40;2.90;99.90
27540;DHT22;15906;52.046;4.724;2023-02-15T03:43:45;2.80;99.90
27540;DHT22;15906;52.046;4.724;2023-02-15T03:46:33;2.80;99.90
27540;DHT22;15906;52.046;4.724;2023-02-15T03:49:09;2.70;99.90
27540;DHT22;15906;52.046;4.724;2023-02-15T03:51:37;2.70;99.90
27540;DHT22;15906;52.046;4.724;2023-02-15T03:54:08;2.70;99.90
27540;DHT22;15906;52.046;4.724;2023-02-15T03:56:40;2.80;99.90
27540;DHT22;15906;52.046;4.724;2023-02-15T03:59:06;2.70;99.90
27540;DHT22;15906;52.046;4.724;2023-02-15T04:02:18;2.70;99.90
27540;DHT22;15906;52.046;4.724;2023-02-15T04:04:46;2.80;99.90
27540;DHT22;15906;52.046;4.724;2023-02-15T04:07:12;2.80;99.90
27540;DHT22;15906;52.046;4.724;2023-02-15T04:09:38;2.70;99.90
27540;DHT22;15906;52.046;4.724;2023-02-15T04:12:22;2.80;99.90
27540;DHT22;15906;52.046;4.724;2023-02-15T04:14:48;2.90;99.90
27540;DHT22;15906;52.046;4.724;2023-02-15T04:17:32;2.80;99.90
27540;DHT22;15906;52.046;4.724;2023-02-15T04:19:58;2.90;99.90
27540;DHT22;15906;52.046;4.724;2023-02-15T04:22:42;2.90;99.90
27540;DHT22;15906;52.046;4.724;2023-02-15T04:25:26;2.90;99.90
27540;DHT22;15906;52.046;4.724;2023-02-15T04:27:53;2.90;99.90
27540;DHT22;15906;52.046;4.724;2023-02-15T04:30:21;2.90;99.90
27540;DHT22;15906;52.046;4.724;2023-02-15T04:32:47;2.90;99.90
27540;DHT22;15906;52.046;4.724;2023-02-15T04:35:13;2.90;99.90
27540;DHT22;15906;52.046;4.724;2023-02-15T04:37:40;2.90;99.90
27540;DHT22;15906;52.046;4.724;2023-02-15T04:40:09;2.90;99.90
27540;DHT22;15906;52.046;4.724;2023-02-15T04:42:35;2.90;99.90
27540;DHT22;15906;52.046;4.724;2023-02-15T04:45:00;2.90;99.90
27540;DHT22;15906;52.046;4.724;2023-02-15T04:47:26;2.90;99.90
27540;DHT22;15906;52.046;4.724;2023-02-15T04:49:51;3.00;99.90
27540;DHT22;15906;52.046;4.724;2023-02-15T04:52:17;2.90;99.90
27540;DHT22;15906;52.046;4.724;2023-02-15T04:54:43;3.00;99.90
27540;DHT22;15906;52.046;4.724;2023-02-15T04:57:09;3.10;99.90
27540;DHT22;15906;52.046;4.724;2023-02-15T04:59:35;3.10;99.90
27540;DHT22;15906;52.046;4.724;2023-02-15T05:02:00;3.10;99.90
27540;DHT22;15906;52.046;4.724;2023-02-15T05:04:26;3.10;99.90
27540;DHT22;15906;52.046;4.724;2023-02-15T05:06:51;3.20;99.90
27540;DHT22;15906;52.046;4.724;2023-02-15T05:09:17;3.10;99.90
27540;DHT22;15906;52.046;4.724;2023-02-15T05:11:42;3.00;99.90
27540;DHT22;15906;52.046;4.724;2023-02-15T05:14:08;3.00;99.90
27540;DHT22;15906;52.046;4.724;2023-02-15T05:16:34;3.00;99.90
27540;DHT22;15906;52.046;4.724;2023-02-15T05:18:59;3.00;99.90
27540;DHT22;15906;52.046;4.724;2023-02-15T05:21:25;2.90;99.90
27540;DHT22;15906;52.046;4.724;2023-02-15T05:23:51;2.90;99.90
27540;DHT22;15906;52.046;4.724;2023-02-15T05:26:19;3.00;99.90
27540;DHT22;15906;52.046;4.724;2023-02-15T05:29:03;2.90;99.90
27540;DHT22;15906;52.046;4.724;2023-02-15T05:31:31;2.90;99.90
27540;DHT22;15906;52.046;4.724;2023-02-15T05:33:57;2.80;99.90
27540;DHT22;15906;52.046;4.724;2023-02-15T05:36:22;2.80;99.90
27540;DHT22;15906;52.046;4.724;2023-02-15T05:38:48;2.80;99.90
27540;DHT22;15906;52.046;4.724;2023-02-15T05:41:14;2.70;99.90
27540;DHT22;15906;52.046;4.724;2023-02-15T05:43:39;2.80;99.90
27540;DHT22;15906;52.046;4.724;2023-02-15T05:46:05;2.70;99.90
27540;DHT22;15906;52.046;4.724;2023-02-15T05:48:32;2.70;99.90
27540;DHT22;15906;52.046;4.724;2023-02-15T05:51:02;2.70;99.90
27540;DHT22;15906;52.046;4.724;2023-02-15T05:53:30;2.70;99.90
27540;DHT22;15906;52.046;4.724;2023-02-15T05:55:56;2.70;99.90
27540;DHT22;15906;52.046;4.724;2023-02-15T05:58:29;2.60;99.90
27540;DHT22;15906;52.046;4.724;2023-02-15T06:00:55;2.60;99.90
27540;DHT22;15906;52.046;4.724;2023-02-15T06:03:21;2.60;99.90
27540;DHT22;15906;52.046;4.724;2023-02-15T06:05:47;2.50;99.90
27540;DHT22;15906;52.046;4.724;2023-02-15T06:08:13;2.50;99.90
27540;DHT22;15906;52.046;4.724;2023-02-15T06:10:38;2.60;99.90
27540;DHT22;15906;52.046;4.724;2023-02-15T06:13:05;2.50;99.90
27540;DHT22;15906;52.046;4.724;2023-02-15T06:15:31;2.50;99.90
27540;DHT22;15906;52.046;4.724;2023-02-15T06:17:57;2.50;99.90
27540;DHT22;15906;52.046;4.724;2023-02-15T06:20:22;2.50;99.90
27540;DHT22;15906;52.046;4.724;2023-02-15T06:22:48;2.50;99.90
27540;DHT22;15906;52.046;4.724;2023-02-15T06:25:13;2.60;99.90
27540;DHT22;15906;52.046;4.724;2023-02-15T06:27:41;2.50;99.90
27540;DHT22;15906;52.046;4.724;2023-02-15T06:30:09;2.50;99.90
27540;DHT22;15906;52.046;4.724;2023-02-15T06:32:35;2.50;99.90
27540;DHT22;15906;52.046;4.724;2023-02-15T06:35:01;2.50;99.90
27540;DHT22;15906;52.046;4.724;2023-02-15T06:37:27;2.50;99.90
27540;DHT22;15906;52.046;4.724;2023-02-15T06:39:53;2.50;99.90
27540;DHT22;15906;52.046;4.724;2023-02-15T06:42:18;2.40;99.90
27540;DHT22;15906;52.046;4.724;2023-02-15T06:44:44;2.40;99.90
27540;DHT22;15906;52.046;4.724;2023-02-15T06:47:10;2.50;99.90
27540;DHT22;15906;52.046;4.724;2023-02-15T06:49:36;2.40;99.90
27540;DHT22;15906;52.046;4.724;2023-02-15T06:52:02;2.30;99.90
27540;DHT22;15906;52.046;4.724;2023-02-15T06:54:28;2.40;99.90
27540;DHT22;15906;52.046;4.724;2023-02-15T06:56:54;2.40;99.90
27540;DHT22;15906;52.046;4.724;2023-02-15T06:59:19;2.40;99.90
27540;DHT22;15906;52.046;4.724;2023-02-15T07:01:45;2.30;99.90
27540;DHT22;15906;52.046;4.724;2023-02-15T07:04:10;2.30;99.90
27540;DHT22;15906;52.046;4.724;2023-02-15T07:06:36;2.40;99.90
27540;DHT22;15906;52.046;4.724;2023-02-15T07:09:02;2.30;99.90
27540;DHT22;15906;52.046;4.724;2023-02-15T07:11:28;2.30;99.90
27540;DHT22;15906;52.046;4.724;2023-02-15T07:14:12;2.40;99.90
27540;DHT22;15906;52.046;4.724;2023-02-15T07:16:38;2.40;99.90
27540;DHT22;15906;52.046;4.724;2023-02-15T07:19:04;2.40;99.90
27540;DHT22;15906;52.046;4.724;2023-02-15T07:21:29;2.50;99.90
27540;DHT22;15906;52.046;4.724;2023-02-15T07:23:58;2.50;99.90
27540;DHT22;15906;52.046;4.724;2023-02-15T07:26:24;2.50;99.90
27540;DHT22;15906;52.046;4.724;2023-02-15T07:28:49;2.50;99.90
27540;DHT22;15906;52.046;4.724;2023-02-15T07:31:15;2.50;99.90
27540;DHT22;15906;52.046;4.724;2023-02-15T07:33:41;2.50;99.90
27540;DHT22;15906;52.046;4.724;2023-02-15T07:36:07;2.50;99.90
27540;DHT22;15906;52.046;4.724;2023-02-15T07:38:36;2.50;99.90
27540;DHT22;15906;52.046;4.724;2023-02-15T07:41:04;2.40;99.90
27540;DHT22;15906;52.046;4.724;2023-02-15T07:43:30;2.50;99.90
27540;DHT22;15906;52.046;4.724;2023-02-15T07:46:19;2.40;99.90
27540;DHT22;15906;52.046;4.724;2023-02-15T07:48:46;2.50;99.90
27540;DHT22;15906;52.046;4.724;2023-02-15T07:51:12;2.50;99.90
27540;DHT22;15906;52.046;4.724;2023-02-15T07:53:39;2.50;99.90
27540;DHT22;15906;52.046;4.724;2023-02-15T07:56:07;2.60;99.90
27540;DHT22;15906;52.046;4.724;2023-02-15T07:58:33;2.60;99.90
27540;DHT22;15906;52.046;4.724;2023-02-15T08:01:30;2.60;99.90
27540;DHT22;15906;52.046;4.724;2023-02-15T08:03:56;2.60;99.90
27540;DHT22;15906;52.046;4.724;2023-02-15T08:06:25;2.70;99.90
27540;DHT22;15906;52.046;4.724;2023-02-15T08:08:51;2.80;99.90
27540;DHT22;15906;52.046;4.724;2023-02-15T08:11:22;2.80;99.90
27540;DHT22;15906;52.046;4.724;2023-02-15T08:13:56;2.90;99.90
27540;DHT22;15906;52.046;4.724;2023-02-15T08:18:55;3.00;99.90
27540;DHT22;15906;52.046;4.724;2023-02-15T08:21:22;3.00;99.90
27540;DHT22;15906;52.046;4.724;2023-02-15T08:23:47;3.00;99.90
27540;DHT22;15906;52.046;4.724;2023-02-15T08:26:13;3.00;99.90
27540;DHT22;15906;52.046;4.724;2023-02-15T08:28:40;3.10;99.90
27540;DHT22;15906;52.046;4.724;2023-02-15T08:31:11;3.10;99.90
27540;DHT22;15906;52.046;4.724;2023-02-15T08:33:38;3.10;99.90
27540;DHT22;15906;52.046;4.724;2023-02-15T08:36:05;3.30;99.90
27540;DHT22;15906;52.046;4.724;2023-02-15T08:38:31;3.30;99.90
27540;DHT22;15906;52.046;4.724;2023-02-15T08:40:57;3.40;99.90
27540;DHT22;15906;52.046;4.724;2023-02-15T08:43:22;3.40;99.90
27540;DHT22;15906;52.046;4.724;2023-02-15T08:45:48;3.50;99.90
27540;DHT22;15906;52.046;4.724;2023-02-15T08:48:13;3.50;99.90
27540;DHT22;15906;52.046;4.724;2023-02-15T08:50:39;3.60;99.90
27540;DHT22;15906;52.046;4.724;2023-02-15T08:53:04;3.70;99.90
27540;DHT22;15906;52.046;4.724;2023-02-15T08:55:30;3.70;99.90
27540;DHT22;15906;52.046;4.724;2023-02-15T08:57:56;3.70;99.90
27540;DHT22;15906;52.046;4.724;2023-02-15T09:00:22;3.80;99.90
27540;DHT22;15906;52.046;4.724;2023-02-15T09:02:48;3.90;99.90
27540;DHT22;15906;52.046;4.724;2023-02-15T09:05:13;4.10;99.90
27540;DHT22;15906;52.046;4.724;2023-02-15T09:07:39;4.10;99.90
27540;DHT22;15906;52.046;4.724;2023-02-15T09:10:06;4.20;99.90
27540;DHT22;15906;52.046;4.724;2023-02-15T09:12:32;4.10;99.90
27540;DHT22;15906;52.046;4.724;2023-02-15T09:14:57;4.20;99.90
27540;DHT22;15906;52.046;4.724;2023-02-15T09:17:23;4.30;99.90
27540;DHT22;15906;52.046;4.724;2023-02-15T09:19:49;4.40;99.90
27540;DHT22;15906;52.046;4.724;2023-02-15T09:22:14;4.50;99.90
27540;DHT22;15906;52.046;4.724;2023-02-15T09:24:40;4.70;99.90
27540;DHT22;15906;52.046;4.724;2023-02-15T09:27:05;4.90;99.90
27540;DHT22;15906;52.046;4.724;2023-02-15T09:29:31;5.10;99.90
27540;DHT22;15906;52.046;4.724;2023-02-15T09:31:56;5.20;99.90
27540;DHT22;15906;52.046;4.724;2023-02-15T09:34:23;5.50;99.90
27540;DHT22;15906;52.046;4.724;2023-02-15T09:36:49;5.60;99.90
27540;DHT22;15906;52.046;4.724;2023-02-15T09:39:20;5.80;99.90
27540;DHT22;15906;52.046;4.724;2023-02-15T09:58:08;6.80;99.90
27540;DHT22;15906;52.046;4.724;2023-02-15T10:03:39;7.30;99.90
27540;DHT22;15906;52.046;4.724;2023-02-15T10:09:02;7.60;99.90
27540;DHT22;15906;52.046;4.724;2023-02-15T10:12:03;7.80;99.90
27540;DHT22;15906;52.046;4.724;2023-02-15T10:28:42;8.30;99.90
27540;DHT22;15906;52.046;4.724;2023-02-15T10:31:50;8.30;99.90
27540;DHT22;15906;52.046;4.724;2023-02-15T10:34:20;8.20;99.90
27540;DHT22;15906;52.046;4.724;2023-02-15T10:43:13;8.20;99.90
27540;DHT22;15906;52.046;4.724;2023-02-15T10:46:05;8.40;99.90
27540;DHT22;15906;52.046;4.724;2023-02-15T10:48:43;8.40;99.90
27540;DHT22;15906;52.046;4.724;2023-02-15T10:51:38;8.40;99.90
27540;DHT22;15906;52.046;4.724;2023-02-15T10:54:30;8.40;99.90
27540;DHT22;15906;52.046;4.724;2023-02-15T11:02:49;8.80;99.90
27540;DHT22;15906;52.046;4.724;2023-02-15T11:05:45;8.80;99.90
27540;DHT22;15906;52.046;4.724;2023-02-15T11:08:15;8.90;99.90
27540;DHT22;15906;52.046;4.724;2023-02-15T11:10:51;9.00;99.90
27540;DHT22;15906;52.046;4.724;2023-02-15T11:13:21;9.10;99.90
27540;DHT22;15906;52.046;4.724;2023-02-15T11:15:57;9.20;99.90
27540;DHT22;15906;52.046;4.724;2023-02-15T11:18:34;9.20;99.90
27540;DHT22;15906;52.046;4.724;2023-02-15T11:21:43;9.30;99.90
27540;DHT22;15906;52.046;4.724;2023-02-15T11:27:04;9.20;99.90
27540;DHT22;15906;52.046;4.724;2023-02-15T11:34:31;9.60;99.90
27540;DHT22;15906;52.046;4.724;2023-02-15T11:37:11;9.70;99.90
27540;DHT22;15906;52.046;4.724;2023-02-15T11:39:37;9.90;99.90
27540;DHT22;15906;52.046;4.724;2023-02-15T11:42:14;9.80;99.90
27540;DHT22;15906;52.046;4.724;2023-02-15T11:47:28;9.90;99.90
27540;DHT22;15906;52.046;4.724;2023-02-15T11:49:54;10.00;99.90
27540;DHT22;15906;52.046;4.724;2023-02-15T11:52:20;10.10;99.90
27540;DHT22;15906;52.046;4.724;2023-02-15T11:54:49;10.20;99.90
27540;DHT22;15906;52.046;4.724;2023-02-15T11:57:28;10.30;99.90
27540;DHT22;15906;52.046;4.724;2023-02-15T12:00:09;10.30;99.90
27540;DHT22;15906;52.046;4.724;2023-02-15T12:02:38;10.50;99.90
27540;DHT22;15906;52.046;4.724;2023-02-15T12:05:11;10.60;99.90
27540;DHT22;15906;52.046;4.724;2023-02-15T12:12:39;11.00;99.90
27540;DHT22;15906;52.046;4.724;2023-02-15T12:15:09;10.90;99.90
27540;DHT22;15906;52.046;4.724;2023-02-15T12:17:52;10.90;99.90
27540;DHT22;15906;52.046;4.724;2023-02-15T12:22:51;11.20;99.90
27540;DHT22;15906;52.046;4.724;2023-02-15T12:27:56;11.80;99.90
27540;DHT22;15906;52.046;4.724;2023-02-15T12:30:37;12.10;99.90
27540;DHT22;15906;52.046;4.724;2023-02-15T12:36:15;12.70;99.90
27540;DHT22;15906;52.046;4.724;2023-02-15T12:38:42;12.60;99.90
27540;DHT22;15906;52.046;4.724;2023-02-15T12:41:23;12.60;99.90
27540;DHT22;15906;52.046;4.724;2023-02-15T12:44:04;12.40;99.90
27540;DHT22;15906;52.046;4.724;2023-02-15T12:46:30;12.30;99.90
27540;DHT22;15906;52.046;4.724;2023-02-15T12:49:06;12.40;99.90
27540;DHT22;15906;52.046;4.724;2023-02-15T12:51:43;12.30;99.90
27540;DHT22;15906;52.046;4.724;2023-02-15T12:54:38;12.10;99.90
27540;DHT22;15906;52.046;4.724;2023-02-15T12:59:57;11.80;99.90
27540;DHT22;15906;52.046;4.724;2023-02-15T13:02:43;11.80;99.90
27540;DHT22;15906;52.046;4.724;2023-02-15T13:07:39;11.70;99.90
27540;DHT22;15906;52.046;4.724;2023-02-15T13:10:39;11.70;99.90
27540;DHT22;15906;52.046;4.724;2023-02-15T13:13:18;11.80;99.90
27540;DHT22;15906;52.046;4.724;2023-02-15T13:15:50;11.90;99.90
27540;DHT22;15906;52.046;4.724;2023-02-15T13:18:40;11.90;99.90
27540;DHT22;15906;52.046;4.724;2023-02-15T13:21:12;11.90;99.90
27540;DHT22;15906;52.046;4.724;2023-02-15T13:23:40;12.00;99.90
27540;DHT22;15906;52.046;4.724;2023-02-15T13:26:13;12.00;99.90
27540;DHT22;15906;52.046;4.724;2023-02-15T13:28:55;11.90;99.90
27540;DHT22;15906;52.046;4.724;2023-02-15T13:31:25;12.00;99.90
27540;DHT22;15906;52.046;4.724;2023-02-15T13:34:10;12.00;99.90
27540;DHT22;15906;52.046;4.724;2023-02-15T13:37:02;11.90;99.90
27540;DHT22;15906;52.046;4.724;2023-02-15T13:42:27;11.90;99.90
27540;DHT22;15906;52.046;4.724;2023-02-15T13:45:40;11.90;99.90
27540;DHT22;15906;52.046;4.724;2023-02-15T14:00:13;12.00;99.90
27540;DHT22;15906;52.046;4.724;2023-02-15T14:05:37;11.90;99.90
27540;DHT22;15906;52.046;4.724;2023-02-15T14:11:06;11.90;99.90
27540;DHT22;15906;52.046;4.724;2023-02-15T14:16:45;11.90;99.90
27540;DHT22;15906;52.046;4.724;2023-02-15T14:19:23;11.90;99.90
27540;DHT22;15906;52.046;4.724;2023-02-15T14:22:11;11.90;99.90
27540;DHT22;15906;52.046;4.724;2023-02-15T14:30:48;12.00;99.90
27540;DHT22;15906;52.046;4.724;2023-02-15T14:35:41;11.90;99.90
27540;DHT22;15906;52.046;4.724;2023-02-15T14:38:28;11.80;99.90
27540;DHT22;15906;52.046;4.724;2023-02-15T14:49:15;11.60;99.90
27540;DHT22;15906;52.046;4.724;2023-02-15T14:56:43;11.50;99.90
27540;DHT22;15906;52.046;4.724;2023-02-15T14:59:20;11.50;99.90
27540;DHT22;15906;52.046;4.724;2023-02-15T15:04:34;11.50;99.90
27540;DHT22;15906;52.046;4.724;2023-02-15T15:07:14;11.40;99.90
27540;DHT22;15906;52.046;4.724;2023-02-15T15:09:43;11.40;99.90
27540;DHT22;15906;52.046;4.724;2023-02-15T15:14:49;11.20;99.90
27540;DHT22;15906;52.046;4.724;2023-02-15T15:20:12;11.10;99.90
27540;DHT22;15906;52.046;4.724;2023-02-15T15:22:42;11.00;99.90
27540;DHT22;15906;52.046;4.724;2023-02-15T15:27:57;11.00;99.90
27540;DHT22;15906;52.046;4.724;2023-02-15T15:43:48;10.80;99.90
27540;DHT22;15906;52.046;4.724;2023-02-15T15:46:56;10.70;99.90
27540;DHT22;15906;52.046;4.724;2023-02-15T15:49:30;10.70;99.90
27540;DHT22;15906;52.046;4.724;2023-02-15T15:52:00;10.60;99.90
27540;DHT22;15906;52.046;4.724;2023-02-15T15:54:26;10.60;99.90
27540;DHT22;15906;52.046;4.724;2023-02-15T15:56:58;10.60;99.90
27540;DHT22;15906;52.046;4.724;2023-02-15T15:59:29;10.60;99.90
27540;DHT22;15906;52.046;4.724;2023-02-15T16:01:55;10.60;99.90
27540;DHT22;15906;52.046;4.724;2023-02-15T16:04:30;10.60;99.90
27540;DHT22;15906;52.046;4.724;2023-02-15T16:09:40;10.40;99.90
27540;DHT22;15906;52.046;4.724;2023-02-15T16:12:14;10.30;99.90
27540;DHT22;15906;52.046;4.724;2023-02-15T16:14:41;10.30;99.90
27540;DHT22;15906;52.046;4.724;2023-02-15T16:17:16;10.20;99.90
27540;DHT22;15906;52.046;4.724;2023-02-15T16:19:43;10.20;99.90
27540;DHT22;15906;52.046;4.724;2023-02-15T16:22:23;10.10;99.90
27540;DHT22;15906;52.046;4.724;2023-02-15T16:25:16;10.00;99.90
27540;DHT22;15906;52.046;4.724;2023-02-15T16:27:47;10.00;99.90
27540;DHT22;15906;52.046;4.724;2023-02-15T16:32:55;9.90;99.90
27540;DHT22;15906;52.046;4.724;2023-02-15T16:35:22;9.80;99.90
27540;DHT22;15906;52.046;4.724;2023-02-15T16:37:47;9.80;99.90
27540;DHT22;15906;52.046;4.724;2023-02-15T16:40:31;9.80;99.90
27540;DHT22;15906;52.046;4.724;2023-02-15T16:43:03;9.80;99.90
27540;DHT22;15906;52.046;4.724;2023-02-15T16:45:31;9.70;99.90
27540;DHT22;15906;52.046;4.724;2023-02-15T16:47:59;9.60;99.90
27540;DHT22;15906;52.046;4.724;2023-02-15T16:50:37;9.60;99.90
27540;DHT22;15906;52.046;4.724;2023-02-15T16:53:05;9.60;99.90
27540;DHT22;15906;52.046;4.724;2023-02-15T16:55:39;9.60;99.90
27540;DHT22;15906;52.046;4.724;2023-02-15T16:58:11;9.60;99.90
27540;DHT22;15906;52.046;4.724;2023-02-15T17:00:38;9.50;99.90
27540;DHT22;15906;52.046;4.724;2023-02-15T17:03:21;9.40;99.90
27540;DHT22;15906;52.046;4.724;2023-02-15T17:05:51;9.40;99.90
27540;DHT22;15906;52.046;4.724;2023-02-15T17:08:31;9.40;99.90
27540;DHT22;15906;52.046;4.724;2023-02-15T17:11:13;9.50;99.90
27540;DHT22;15906;52.046;4.724;2023-02-15T17:13:39;9.50;99.90
27540;DHT22;15906;52.046;4.724;2023-02-15T17:16:26;9.40;99.90
27540;DHT22;15906;52.046;4.724;2023-02-15T17:18:52;9.40;99.90
27540;DHT22;15906;52.046;4.724;2023-02-15T17:21:23;9.40;99.90
27540;DHT22;15906;52.046;4.724;2023-02-15T17:23:51;9.30;99.90
27540;DHT22;15906;52.046;4.724;2023-02-15T17:26:22;9.20;99.90
27540;DHT22;15906;52.046;4.724;2023-02-15T17:28:54;9.20;99.90
27540;DHT22;15906;52.046;4.724;2023-02-15T17:31:21;9.20;99.90
27540;DHT22;15906;52.046;4.724;2023-02-15T17:33:49;9.20;99.90
27540;DHT22;15906;52.046;4.724;2023-02-15T17:36:20;9.20;99.90
27540;DHT22;15906;52.046;4.724;2023-02-15T17:38:59;9.10;99.90
27540;DHT22;15906;52.046;4.724;2023-02-15T17:41:30;9.10;99.90
27540;DHT22;15906;52.046;4.724;2023-02-15T17:43:56;9.00;99.90
27540;DHT22;15906;52.046;4.724;2023-02-15T17:46:23;9.00;99.90
27540;DHT22;15906;52.046;4.724;2023-02-15T17:48:51;9.00;99.90
27540;DHT22;15906;52.046;4.724;2023-02-15T17:51:19;9.10;99.90
27540;DHT22;15906;52.046;4.724;2023-02-15T17:53:45;8.90;99.90
27540;DHT22;15906;52.046;4.724;2023-02-15T17:56:32;9.00;99.90
27540;DHT22;15906;52.046;4.724;2023-02-15T17:58:57;8.90;99.90
27540;DHT22;15906;52.046;4.724;2023-02-15T18:01:23;8.90;99.90
27540;DHT22;15906;52.046;4.724;2023-02-15T18:04:09;8.90;99.90
27540;DHT22;15906;52.046;4.724;2023-02-15T18:06:55;8.80;99.90
27540;DHT22;15906;52.046;4.724;2023-02-15T18:09:39;8.70;99.90
27540;DHT22;15906;52.046;4.724;2023-02-15T18:12:29;8.60;99.90
27540;DHT22;15906;52.046;4.724;2023-02-15T18:14:56;8.60;99.90
27540;DHT22;15906;52.046;4.724;2023-02-15T18:17:35;8.60;99.90
27540;DHT22;15906;52.046;4.724;2023-02-15T18:20:04;8.60;99.90
27540;DHT22;15906;52.046;4.724;2023-02-15T18:22:31;8.60;99.90
27540;DHT22;15906;52.046;4.724;2023-02-15T18:24:57;8.60;99.90
27540;DHT22;15906;52.046;4.724;2023-02-15T18:27:23;8.70;99.90
27540;DHT22;15906;52.046;4.724;2023-02-15T18:29:48;8.70;99.90
27540;DHT22;15906;52.046;4.724;2023-02-15T18:32:28;8.80;99.90
27540;DHT22;15906;52.046;4.724;2023-02-15T18:34:57;8.80;99.90
27540;DHT22;15906;52.046;4.724;2023-02-15T18:37:28;8.70;99.90
27540;DHT22;15906;52.046;4.724;2023-02-15T18:39:54;8.70;99.90
27540;DHT22;15906;52.046;4.724;2023-02-15T18:42:40;8.70;99.90
27540;DHT22;15906;52.046;4.724;2023-02-15T18:45:18;8.70;99.90
27540;DHT22;15906;52.046;4.724;2023-02-15T18:47:46;8.60;99.90
27540;DHT22;15906;52.046;4.724;2023-02-15T18:50:13;8.60;99.90
27540;DHT22;15906;52.046;4.724;2023-02-15T18:52:39;8.60;99.90
27540;DHT22;15906;52.046;4.724;2023-02-15T18:55:19;8.60;99.90
27540;DHT22;15906;52.046;4.724;2023-02-15T18:57:45;8.70;99.90
27540;DHT22;15906;52.046;4.724;2023-02-15T19:00:16;8.70;99.90
27540;DHT22;15906;52.046;4.724;2023-02-15T19:02:42;8.80;99.90
27540;DHT22;15906;52.046;4.724;2023-02-15T19:05:08;8.80;99.90
27540;DHT22;15906;52.046;4.724;2023-02-15T19:07:35;8.80;99.90